Time;durP1;ratioP1;P1;durP2;ratioP2;P2;SDS_P1;SDS_P2;PMS_P1;PMS_P2;Temp;Humidity;BMP_temperature;BMP_pressure;BME280_temperature;BME280_humidity;BME280_pressure;Samples;Min_cycle;Max_cycle;Signal;HPM_P1;HPM_P2
2023/08/23 00:02:20;;;;;;;1999.90;999.90;;;24.60;99.90;;;;;;5075289;28;20045;-75
2023/08/23 00:04:46;;;;;;;1999.90;999.90;;;24.60;99.90;;;;;;5076432;28;20028;-75
2023/08/23 00:07:11;;;;;;;1999.90;999.90;;;24.60;99.90;;;;;;5076374;28;20029;-77
2023/08/23 00:09:37;;;;;;;1999.90;999.90;;;24.50;99.90;;;;;;5074921;28;20166;-75
2023/08/23 00:12:03;;;;;;;1999.90;999.90;;;24.40;99.90;;;;;;5075988;28;20058;-77
2023/08/23 00:14:28;;;;;;;1999.90;999.90;;;24.40;99.90;;;;;;5076081;28;20025;-77
2023/08/23 00:16:54;;;;;;;1999.90;999.90;;;24.40;99.90;;;;;;5076342;28;20406;-74
2023/08/23 00:19:19;;;;;;;1999.90;999.90;;;24.40;99.90;;;;;;5076196;28;20025;-76
2023/08/23 00:21:45;;;;;;;1999.90;999.90;;;24.30;99.90;;;;;;5075079;28;20120;-76
2023/08/23 00:24:11;;;;;;;1999.90;999.90;;;24.40;99.90;;;;;;5075308;28;20044;-77
2023/08/23 00:26:36;;;;;;;1999.90;999.90;;;24.30;99.90;;;;;;5076037;28;20039;-77
2023/08/23 00:29:02;;;;;;;1999.90;999.90;;;24.30;99.90;;;;;;5075906;28;20501;-75
2023/08/23 00:31:27;;;;;;;1999.90;999.90;;;24.30;99.90;;;;;;5074475;28;20063;-74
2023/08/23 00:33:53;;;;;;;1999.90;999.90;;;24.20;99.90;;;;;;5076162;28;20450;-77
2023/08/23 00:36:19;;;;;;;1999.90;999.90;;;24.20;99.90;;;;;;5080059;28;20028;-77
2023/08/23 00:38:44;;;;;;;1999.90;999.90;;;24.20;99.90;;;;;;5086995;28;20032;-77
2023/08/23 00:41:10;;;;;;;1999.90;999.90;;;24.20;99.90;;;;;;5095903;28;20034;-75
2023/08/23 00:43:35;;;;;;;1999.90;999.90;;;24.20;99.90;;;;;;5091778;28;20013;-74
2023/08/23 00:46:01;;;;;;;1999.90;999.90;;;24.20;99.90;;;;;;5075550;28;20032;-77
2023/08/23 00:48:28;;;;;;;1999.90;999.90;;;24.20;99.90;;;;;;5074037;28;20391;-77
2023/08/23 00:50:54;;;;;;;1999.90;999.90;;;24.20;99.90;;;;;;5074292;28;20025;-74
2023/08/23 00:53:20;;;;;;;1999.90;999.90;;;24.10;99.90;;;;;;5075608;28;20028;-77
2023/08/23 00:55:46;;;;;;;1999.90;999.90;;;24.10;99.90;;;;;;5075545;28;20062;-75
2023/08/23 00:58:12;;;;;;;1999.90;999.90;;;24.10;99.90;;;;;;5075649;28;20077;-77
2023/08/23 01:00:41;;;;;;;1999.90;999.90;;;24.10;99.90;;;;;;5075283;28;20032;-77
2023/08/23 01:03:06;;;;;;;1999.90;999.90;;;24.00;99.90;;;;;;5075259;28;20037;-77
2023/08/23 01:05:57;;;;;;;1999.90;999.90;;;24.00;99.90;;;;;;5073878;28;20487;-77
2023/08/23 01:08:48;;;;;;;1999.90;999.90;;;24.00;99.90;;;;;;5075359;28;20383;-75
2023/08/23 01:11:19;;;;;;;1999.90;999.90;;;24.00;99.90;;;;;;5075223;28;20162;-77
2023/08/23 01:14:03;;;;;;;1999.90;999.90;;;23.90;99.90;;;;;;5073824;28;20047;-77
2023/08/23 01:16:34;;;;;;;1999.90;999.90;;;23.90;99.90;;;;;;5073850;28;20377;-77
2023/08/23 01:19:13;;;;;;;1999.90;999.90;;;23.90;99.90;;;;;;5074949;28;20045;-77
2023/08/23 01:21:42;;;;;;;1999.90;999.90;;;23.90;99.90;;;;;;5074864;28;20029;-74
2023/08/23 01:24:08;;;;;;;1999.90;999.90;;;23.90;99.90;;;;;;5074872;28;20021;-77
2023/08/23 01:26:36;;;;;;;1999.90;999.90;;;23.90;99.90;;;;;;5075123;28;20024;-77
2023/08/23 01:29:02;;;;;;;1999.90;999.90;;;23.90;99.90;;;;;;5075143;28;20542;-74
2023/08/23 01:31:32;;;;;;;1999.90;999.90;;;23.90;99.90;;;;;;5074876;28;20078;-77
2023/08/23 01:34:15;;;;;;;1999.90;999.90;;;23.80;99.90;;;;;;5074606;28;20507;-74
2023/08/23 01:36:41;;;;;;;1999.90;999.90;;;23.80;99.90;;;;;;5080985;28;20020;-77
2023/08/23 01:39:10;;;;;;;1999.90;999.90;;;23.80;99.90;;;;;;5086617;28;20031;-77
2023/08/23 01:41:37;;;;;;;1999.90;999.90;;;23.80;99.90;;;;;;5093503;28;20056;-77
2023/08/23 01:44:02;;;;;;;1999.90;999.90;;;23.70;99.90;;;;;;5086691;28;20078;-77
2023/08/23 01:46:28;;;;;;;1999.90;999.90;;;23.80;99.90;;;;;;5074588;28;20036;-74
2023/08/23 01:48:54;;;;;;;1999.90;999.90;;;23.70;99.90;;;;;;5074562;28;20111;-75
2023/08/23 01:51:19;;;;;;;1999.90;999.90;;;23.70;99.90;;;;;;5074354;28;20024;-77
2023/08/23 01:53:45;;;;;;;1999.90;999.90;;;23.70;99.90;;;;;;5074354;28;20057;-77
2023/08/23 01:56:10;;;;;;;1999.90;999.90;;;23.70;99.90;;;;;;5074188;28;20043;-77
2023/08/23 01:58:36;;;;;;;1999.90;999.90;;;23.60;99.90;;;;;;5073024;28;20567;-74
2023/08/23 02:01:02;;;;;;;1999.90;999.90;;;23.60;99.90;;;;;;5074144;28;20035;-75
2023/08/23 02:03:27;;;;;;;1999.90;999.90;;;23.60;99.90;;;;;;5072564;28;20051;-77
2023/08/23 02:05:55;;;;;;;1999.90;999.90;;;23.60;99.90;;;;;;5073744;28;20040;-77
2023/08/23 02:08:20;;;;;;;1999.90;999.90;;;23.50;99.90;;;;;;5072705;28;20020;-77
2023/08/23 02:10:46;;;;;;;1999.90;999.90;;;23.50;99.90;;;;;;5073858;28;20119;-77
2023/08/23 02:13:12;;;;;;;1999.90;999.90;;;23.50;99.90;;;;;;5074139;28;20025;-74
2023/08/23 02:15:37;;;;;;;1999.90;999.90;;;23.40;99.90;;;;;;5073792;28;20125;-75
2023/08/23 02:18:03;;;;;;;1999.90;999.90;;;23.40;99.90;;;;;;5072515;28;20033;-77
2023/08/23 02:20:28;;;;;;;1999.90;999.90;;;23.40;99.90;;;;;;5073921;28;20060;-77
2023/08/23 02:22:54;;;;;;;1999.90;999.90;;;23.40;99.90;;;;;;5073721;28;20021;-77
2023/08/23 02:25:20;;;;;;;1999.90;999.90;;;23.40;99.90;;;;;;5072159;28;20029;-74
2023/08/23 02:27:45;;;;;;;1999.90;999.90;;;23.40;99.90;;;;;;5073614;28;20017;-75
2023/08/23 02:30:12;;;;;;;1999.90;999.90;;;23.40;99.90;;;;;;5073846;28;20555;-77
2023/08/23 02:32:38;;;;;;;1999.90;999.90;;;23.40;99.90;;;;;;5073405;28;20479;-77
2023/08/23 02:35:04;;;;;;;1999.90;999.90;;;23.40;99.90;;;;;;5073797;28;20036;-74
2023/08/23 02:37:29;;;;;;;1999.90;999.90;;;23.30;99.90;;;;;;5079834;28;20048;-77
2023/08/23 02:39:55;;;;;;;1999.90;999.90;;;23.30;99.90;;;;;;5090845;28;20081;-74
2023/08/23 02:42:20;;;;;;;1999.90;999.90;;;23.30;99.90;;;;;;5093445;28;20064;-77
2023/08/23 02:44:46;;;;;;;1999.90;999.90;;;23.30;99.90;;;;;;5074800;28;20025;-77
2023/08/23 02:47:11;;;;;;;1999.90;999.90;;;23.30;99.90;;;;;;5053328;28;20017;-77
2023/08/23 02:49:37;;;;;;;1999.90;999.90;;;23.20;99.90;;;;;;5061828;28;20498;-77
2023/08/23 02:52:03;;;;;;;1999.90;999.90;;;23.20;99.90;;;;;;5072995;28;20024;-75
2023/08/23 02:54:29;;;;;;;1999.90;999.90;;;23.20;99.90;;;;;;5073347;28;20487;-74
2023/08/23 02:56:55;;;;;;;1999.90;999.90;;;23.20;99.90;;;;;;5073177;28;20031;-75
2023/08/23 02:59:20;;;;;;;1999.90;999.90;;;23.10;99.90;;;;;;5073419;28;20051;-77
2023/08/23 03:01:46;;;;;;;1999.90;999.90;;;23.10;99.90;;;;;;5073098;28;20020;-76
2023/08/23 03:04:11;;;;;;;1999.90;999.90;;;23.10;99.90;;;;;;5072709;28;20511;-77
2023/08/23 03:06:37;;;;;;;1999.90;999.90;;;23.10;99.90;;;;;;5071727;28;20017;-74
2023/08/23 03:09:03;;;;;;;1999.90;999.90;;;23.10;99.90;;;;;;5073043;28;20118;-77
2023/08/23 03:11:28;;;;;;;1999.90;999.90;;;23.00;99.90;;;;;;5071644;28;20024;-77
2023/08/23 03:13:54;;;;;;;1999.90;999.90;;;23.00;99.90;;;;;;5072941;28;20039;-77
2023/08/23 03:16:19;;;;;;;1999.90;999.90;;;22.90;99.90;;;;;;5073026;28;20475;-76
2023/08/23 03:18:45;;;;;;;1999.90;999.90;;;22.90;99.90;;;;;;5072735;28;20036;-74
2023/08/23 03:21:11;;;;;;;1999.90;999.90;;;22.90;99.90;;;;;;5072001;28;20028;-74
2023/08/23 03:23:36;;;;;;;1999.90;999.90;;;22.90;99.90;;;;;;5089422;28;20024;-76
2023/08/23 03:26:02;;;;;;;1999.90;999.90;;;22.90;99.90;;;;;;5093035;28;20020;-76
2023/08/23 03:28:28;;;;;;;1999.90;999.90;;;22.90;99.90;;;;;;5092956;28;20027;-76
2023/08/23 03:30:53;;;;;;;1999.90;999.90;;;22.90;99.90;;;;;;5091703;28;20061;-74
2023/08/23 03:33:19;;;;;;;1999.90;999.90;;;22.80;99.90;;;;;;5092855;28;20013;-77
2023/08/23 03:35:52;;;;;;;1999.90;999.90;;;22.80;99.90;;;;;;5087779;28;20174;-77
2023/08/23 03:38:17;;;;;;;1999.90;999.90;;;22.80;99.90;;;;;;5080592;28;20549;-77
2023/08/23 03:40:43;;;;;;;1999.90;999.90;;;22.80;99.90;;;;;;5092622;28;20039;-77
2023/08/23 03:43:09;;;;;;;1999.90;999.90;;;22.80;99.90;;;;;;5092179;28;20024;-75
2023/08/23 03:45:34;;;;;;;1999.90;999.90;;;22.80;99.90;;;;;;5072731;28;20503;-74
2023/08/23 03:48:00;;;;;;;1999.90;999.90;;;22.70;99.90;;;;;;5072292;28;20491;-74
2023/08/23 03:50:25;;;;;;;1999.90;999.90;;;22.70;99.90;;;;;;5071211;28;20031;-76
2023/08/23 03:52:51;;;;;;;1999.90;999.90;;;22.70;99.90;;;;;;5072662;28;20025;-77
2023/08/23 03:55:17;;;;;;;1999.90;999.90;;;22.70;99.90;;;;;;5072446;28;20025;-77
2023/08/23 03:57:42;;;;;;;1999.90;999.90;;;22.70;99.90;;;;;;5071119;28;20029;-74
2023/08/23 04:00:08;;;;;;;1999.90;999.90;;;22.60;99.90;;;;;;5072367;28;20032;-77
2023/08/23 04:02:34;;;;;;;1999.90;999.90;;;22.70;99.90;;;;;;5070856;28;20068;-77
2023/08/23 04:05:02;;;;;;;1999.90;999.90;;;22.60;99.90;;;;;;5072504;28;20063;-77
2023/08/23 04:07:27;;;;;;;1999.90;999.90;;;22.60;99.90;;;;;;5070900;28;20017;-77
2023/08/23 04:09:53;;;;;;;1999.90;999.90;;;22.60;99.90;;;;;;5072458;28;20103;-74
2023/08/23 04:12:19;;;;;;;1999.90;999.90;;;22.60;99.90;;;;;;5072224;28;20064;-74
2023/08/23 04:14:44;;;;;;;1999.90;999.90;;;22.60;99.90;;;;;;5072259;28;20028;-77
2023/08/23 04:17:10;;;;;;;1999.90;999.90;;;22.50;99.90;;;;;;5072333;28;20032;-77
2023/08/23 04:19:36;;;;;;;1999.90;999.90;;;22.50;99.90;;;;;;5072315;28;20111;-77
2023/08/23 04:22:02;;;;;;;1999.90;999.90;;;22.50;99.90;;;;;;5071925;28;20020;-74
2023/08/23 04:24:27;;;;;;;1999.90;999.90;;;22.50;99.90;;;;;;5072291;28;20440;-75
2023/08/23 04:26:53;;;;;;;1999.90;999.90;;;22.50;99.90;;;;;;5070923;28;20111;-74
2023/08/23 04:29:19;;;;;;;1999.90;999.90;;;22.50;99.90;;;;;;5072165;28;20025;-77
2023/08/23 04:31:44;;;;;;;1999.90;999.90;;;22.50;99.90;;;;;;5072275;28;20396;-77
2023/08/23 04:34:10;;;;;;;1999.90;999.90;;;22.50;99.90;;;;;;5071891;28;20025;-77
2023/08/23 04:36:36;;;;;;;1999.90;999.90;;;22.40;99.90;;;;;;5078376;28;20457;-74
2023/08/23 04:39:01;;;;;;;1999.90;999.90;;;22.40;99.90;;;;;;5083247;28;20024;-77
2023/08/23 04:41:27;;;;;;;1999.90;999.90;;;22.40;99.90;;;;;;5092359;28;20028;-77
2023/08/23 04:43:53;;;;;;;1999.90;999.90;;;22.40;99.90;;;;;;5085617;28;20044;-75
2023/08/23 04:46:18;;;;;;;1999.90;999.90;;;22.40;99.90;;;;;;5074280;28;20113;-77
2023/08/23 04:48:44;;;;;;;1999.90;999.90;;;22.40;99.90;;;;;;5086172;28;20417;-75
2023/08/23 04:51:11;;;;;;;1999.90;999.90;;;22.50;99.90;;;;;;5081600;28;20020;-74
2023/08/23 04:53:37;;;;;;;1999.90;999.90;;;22.40;99.90;;;;;;5095895;28;20024;-77
2023/08/23 04:56:03;;;;;;;1999.90;999.90;;;22.50;99.90;;;;;;5095552;28;20504;-77
2023/08/23 04:58:32;;;;;;;1999.90;999.90;;;22.50;99.90;;;;;;5095917;28;20048;-76
2023/08/23 05:01:05;;;;;;;1999.90;999.90;;;22.50;99.90;;;;;;5093804;28;20035;-74
2023/08/23 05:03:31;;;;;;;1999.90;999.90;;;22.50;99.90;;;;;;5095089;28;20101;-74
2023/08/23 05:06:00;;;;;;;1999.90;999.90;;;22.40;99.90;;;;;;5085613;28;20029;-76
2023/08/23 05:08:27;;;;;;;1999.90;999.90;;;22.30;99.90;;;;;;5074371;28;20017;-77
2023/08/23 05:10:53;;;;;;;1999.90;999.90;;;22.30;99.90;;;;;;5077563;28;20055;-77
2023/08/23 05:13:20;;;;;;;1999.90;999.90;;;22.30;99.90;;;;;;5073131;28;20025;-77
2023/08/23 05:15:51;;;;;;;1999.90;999.90;;;22.30;99.90;;;;;;5078256;28;20104;-74
2023/08/23 05:18:16;;;;;;;1999.90;999.90;;;22.40;99.90;;;;;;5088186;28;20036;-75
2023/08/23 05:20:42;;;;;;;1999.90;999.90;;;22.40;99.90;;;;;;5088253;28;20036;-77
2023/08/23 05:23:08;;;;;;;1999.90;999.90;;;22.40;99.90;;;;;;5086109;28;20028;-77
2023/08/23 05:25:33;;;;;;;1999.90;999.90;;;22.40;99.90;;;;;;5089937;28;20035;-77
2023/08/23 05:27:59;;;;;;;1999.90;999.90;;;22.40;99.90;;;;;;5074377;28;20035;-74
2023/08/23 05:30:24;;;;;;;1999.90;999.90;;;22.40;99.90;;;;;;5069936;28;20550;-74
2023/08/23 05:32:50;;;;;;;1999.90;999.90;;;22.40;99.90;;;;;;5073402;28;20029;-74
2023/08/23 05:35:15;;;;;;;1999.90;999.90;;;22.40;99.90;;;;;;5073499;28;20104;-76
2023/08/23 05:37:41;;;;;;;1999.90;999.90;;;22.40;99.90;;;;;;5079857;28;20055;-77
2023/08/23 05:40:08;;;;;;;1999.90;999.90;;;22.50;99.90;;;;;;5080291;28;20534;-74
2023/08/23 05:42:33;;;;;;;1999.90;999.90;;;22.50;99.90;;;;;;5074520;28;20070;-77
2023/08/23 05:44:59;;;;;;;1999.90;999.90;;;22.50;99.90;;;;;;5072445;28;20032;-77
2023/08/23 05:47:25;;;;;;;1999.90;999.90;;;22.50;99.90;;;;;;5073244;28;20035;-77
2023/08/23 05:49:51;;;;;;;1999.90;999.90;;;22.50;99.90;;;;;;5082945;28;20024;-74
2023/08/23 05:52:16;;;;;;;1999.90;999.90;;;22.60;99.90;;;;;;5076339;28;20043;-77
2023/08/23 05:54:42;;;;;;;1999.90;999.90;;;22.60;99.90;;;;;;5079140;28;20027;-74
2023/08/23 05:57:07;;;;;;;1999.90;999.90;;;22.70;99.90;;;;;;5073120;28;20427;-77
2023/08/23 05:59:33;;;;;;;1999.90;999.90;;;22.80;99.90;;;;;;5073273;28;20089;-76
2023/08/23 06:01:59;;;;;;;1999.90;999.90;;;22.80;99.90;;;;;;5073329;28;20043;-77
2023/08/23 06:04:24;;;;;;;1999.90;999.90;;;23.00;99.90;;;;;;5067328;28;20045;-76
2023/08/23 06:06:50;;;;;;;1999.90;999.90;;;23.10;99.90;;;;;;5074466;28;20119;-75
2023/08/23 06:09:18;;;;;;;1999.90;999.90;;;23.20;99.90;;;;;;5085477;28;20021;-75
2023/08/23 06:11:43;;;;;;;1999.90;999.90;;;23.30;99.90;;;;;;5072860;28;20029;-77
2023/08/23 06:14:21;;;;;;;1999.90;999.90;;;23.40;99.90;;;;;;5071163;28;20027;-77
2023/08/23 06:16:49;;;;;;;1999.90;999.90;;;23.40;99.90;;;;;;5072476;28;20113;-77
2023/08/23 06:19:14;;;;;;;1999.90;999.90;;;23.50;99.90;;;;;;5073115;28;20111;-74
2023/08/23 06:21:43;;;;;;;1999.90;999.90;;;23.50;99.90;;;;;;5075416;28;20115;-74
2023/08/23 06:24:10;;;;;;;1999.90;999.90;;;23.50;99.90;;;;;;5078114;28;20016;-77
2023/08/23 06:26:36;;;;;;;1999.90;999.90;;;23.60;99.90;;;;;;5082104;28;20035;-77
2023/08/23 06:29:03;;;;;;;1999.90;999.90;;;23.70;99.90;;;;;;5079470;28;20021;-77
2023/08/23 06:31:29;;;;;;;1999.90;999.90;;;23.70;99.90;;;;;;5072083;28;20020;-78
2023/08/23 06:33:54;;;;;;;1999.90;999.90;;;23.70;99.90;;;;;;5072409;28;20028;-74
2023/08/23 06:36:20;;;;;;;1999.90;999.90;;;23.80;99.90;;;;;;5075847;28;20383;-74
2023/08/23 06:38:46;;;;;;;1999.90;999.90;;;23.90;99.90;;;;;;5069687;28;20131;-77
2023/08/23 06:41:11;;;;;;;1999.90;999.90;;;24.10;99.90;;;;;;5076023;28;20067;-77
2023/08/23 06:43:37;;;;;;;1999.90;999.90;;;24.20;99.90;;;;;;5074578;28;20103;-76
2023/08/23 06:46:02;;;;;;;1999.90;999.90;;;24.30;99.90;;;;;;5075425;28;20078;-74
2023/08/23 06:48:28;;;;;;;1999.90;999.90;;;24.40;99.90;;;;;;5068419;28;20039;-75
2023/08/23 06:50:58;;;;;;;1999.90;999.90;;;24.70;99.90;;;;;;5072613;28;20033;-75
2023/08/23 06:53:24;;;;;;;1999.90;999.90;;;24.90;99.90;;;;;;5071485;28;20085;-76
2023/08/23 06:55:49;;;;;;;1999.90;999.90;;;25.00;99.90;;;;;;5071335;28;20107;-76
2023/08/23 06:58:15;;;;;;;1999.90;999.90;;;25.20;99.90;;;;;;5075646;28;20444;-76
2023/08/23 07:00:41;;;;;;;1999.90;999.90;;;25.30;99.90;;;;;;5063581;28;20033;-73
2023/08/23 07:03:06;;;;;;;1999.90;999.90;;;25.30;99.90;;;;;;5075183;28;20044;-76
2023/08/23 07:05:35;;;;;;;1999.90;999.90;;;25.40;99.90;;;;;;5074312;28;20020;-73
2023/08/23 07:08:02;;;;;;;1999.90;999.90;;;25.50;99.90;;;;;;5074208;28;20089;-75
2023/08/23 07:10:28;;;;;;;1999.90;999.90;;;25.60;99.90;;;;;;5069042;28;20024;-76
2023/08/23 07:12:54;;;;;;;1999.90;999.90;;;25.70;99.90;;;;;;5071481;28;20070;-76
2023/08/23 07:15:19;;;;;;;1999.90;999.90;;;25.60;99.90;;;;;;5074279;28;20456;-75
2023/08/23 07:17:45;;;;;;;1999.90;999.90;;;25.60;99.90;;;;;;5075466;28;20024;-76
2023/08/23 07:20:13;;;;;;;1999.90;999.90;;;25.80;99.90;;;;;;5075636;28;20063;-75
2023/08/23 07:22:39;;;;;;;1999.90;999.90;;;25.90;99.90;;;;;;5070733;28;20031;-75
2023/08/23 07:25:05;;;;;;;1999.90;999.90;;;26.00;99.90;;;;;;5076744;28;20490;-73
2023/08/23 07:27:30;;;;;;;1999.90;999.90;;;26.10;99.90;;;;;;5075130;28;20032;-76
2023/08/23 07:29:56;;;;;;;1999.90;999.90;;;26.20;99.90;;;;;;5069006;28;20107;-76
2023/08/23 07:32:22;;;;;;;1999.90;999.90;;;26.30;99.90;;;;;;5070374;28;20384;-76
2023/08/23 07:34:48;;;;;;;1999.90;999.90;;;26.40;99.90;;;;;;5069953;28;20020;-73
2023/08/23 07:37:14;;;;;;;1999.90;999.90;;;26.60;99.90;;;;;;5069753;28;20043;-73
2023/08/23 07:39:39;;;;;;;1999.90;999.90;;;26.90;99.90;;;;;;5074961;28;20021;-73
2023/08/23 07:42:05;;;;;;;1999.90;999.90;;;27.10;99.90;;;;;;5072633;28;20021;-73
2023/08/23 07:44:31;;;;;;;1999.90;999.90;;;27.20;99.90;;;;;;5071679;28;20432;-76
2023/08/23 07:46:56;;;;;;;1999.90;999.90;;;27.20;99.90;;;;;;5069699;28;20029;-76
2023/08/23 07:49:22;;;;;;;1999.90;999.90;;;27.20;99.90;;;;;;5069401;28;20498;-77
2023/08/23 07:51:48;;;;;;;1999.90;999.90;;;27.60;99.90;;;;;;5067545;28;20032;-76
2023/08/23 07:54:14;;;;;;;1999.90;999.90;;;28.00;99.90;;;;;;5070373;28;20028;-75
2023/08/23 07:56:39;;;;;;;1999.90;999.90;;;28.30;99.90;;;;;;5068702;28;20403;-76
2023/08/23 07:59:05;;;;;;;1999.90;999.90;;;28.60;99.90;;;;;;5070870;28;20036;-76
2023/08/23 08:01:30;;;;;;;1999.90;999.90;;;28.80;99.90;;;;;;5071905;28;20027;-75
2023/08/23 08:03:56;;;;;;;1999.90;999.90;;;29.10;99.90;;;;;;5071922;28;20057;-74
2023/08/23 08:06:22;;;;;;;1999.90;999.90;;;29.70;99.90;;;;;;5069396;28;20036;-73
2023/08/23 08:08:47;;;;;;;1999.90;999.90;;;31.80;99.90;;;;;;5067259;28;20020;-76
2023/08/23 08:11:14;;;;;;;1999.90;999.90;;;33.40;99.90;;;;;;5070500;28;20028;-77
2023/08/23 08:13:40;;;;;;;1999.90;999.90;;;34.10;99.90;;;;;;5070283;28;20036;-72
2023/08/23 08:16:11;;;;;;;1999.90;999.90;;;35.10;99.90;;;;;;5071815;28;20032;-72
2023/08/23 08:18:37;;;;;;;1999.90;999.90;;;35.40;99.90;;;;;;5073778;28;20487;-74
2023/08/23 08:21:03;;;;;;;1999.90;999.90;;;35.80;99.90;;;;;;5069643;28;20059;-74
2023/08/23 08:23:29;;;;;;;1999.90;999.90;;;36.30;99.90;;;;;;5073983;28;20028;-74
2023/08/23 08:25:55;;;;;;;1999.90;999.90;;;37.50;99.90;;;;;;5075761;28;20062;-74
2023/08/23 08:28:21;;;;;;;1999.90;999.90;;;38.00;99.90;;;;;;5072817;28;20025;-75
2023/08/23 08:30:47;;;;;;;1999.90;999.90;;;37.90;99.90;;;;;;5072763;28;20059;-73
2023/08/23 08:33:12;;;;;;;1999.90;999.90;;;37.60;99.90;;;;;;5074756;28;20032;-73
2023/08/23 08:35:38;;;;;;;1999.90;999.90;;;37.70;99.90;;;;;;5073042;28;20032;-73
2023/08/23 08:38:04;;;;;;;1999.90;999.90;;;38.40;99.90;;;;;;5071314;28;20048;-75
2023/08/23 08:40:30;;;;;;;1999.90;999.90;;;38.40;99.90;;;;;;5073547;28;20094;-76
2023/08/23 08:42:56;;;;;;;1999.90;999.90;;;38.70;99.90;;;;;;5073705;28;20024;-73
2023/08/23 08:45:22;;;;;;;1999.90;999.90;;;38.80;99.90;;;;;;5073628;28;20021;-76
2023/08/23 08:47:48;;;;;;;1999.90;999.90;;;38.80;99.90;;;;;;5073455;28;20052;-73
2023/08/23 08:50:14;;;;;;;1999.90;999.90;;;38.80;99.90;;;;;;5072925;28;20028;-76
2023/08/23 08:52:44;;;;;;;1999.90;999.90;;;39.20;99.90;;;;;;5069827;28;20044;-76
2023/08/23 08:55:11;;;;;;;1999.90;999.90;;;39.50;99.90;;;;;;5081031;28;20501;-73
2023/08/23 08:57:37;;;;;;;1999.90;999.90;;;39.20;99.90;;;;;;5074280;28;20024;-73
2023/08/23 09:00:05;;;;;;;1999.90;999.90;;;40.00;99.70;;;;;;5072416;28;20033;-76
2023/08/23 09:02:32;;;;;;;1999.90;999.90;;;39.10;99.60;;;;;;5072698;28;20499;-76
2023/08/23 09:04:58;;;;;;;1999.90;999.90;;;39.60;99.90;;;;;;5072921;28;20406;-76
2023/08/23 09:07:24;;;;;;;1999.90;999.90;;;40.30;99.30;;;;;;5068877;28;20103;-77
2023/08/23 09:09:50;;;;;;;1999.90;999.90;;;39.10;99.80;;;;;;5076426;28;20439;-74
2023/08/23 09:12:16;;;;;;;1999.90;999.90;;;39.10;99.90;;;;;;5072417;28;20040;-76
2023/08/23 09:14:49;;;;;;;1999.90;999.90;;;39.90;99.60;;;;;;5071961;28;20031;-76
2023/08/23 09:17:15;;;;;;;1999.90;999.90;;;40.70;98.80;;;;;;5073310;28;20020;-76
2023/08/23 09:19:40;;;;;;;1999.90;999.90;;;41.00;98.20;;;;;;5073611;28;20555;-76
2023/08/23 09:22:06;;;;;;;1999.90;999.90;;;41.00;97.80;;;;;;5072288;28;20064;-77
2023/08/23 09:24:33;;;;;;;1999.90;999.90;;;40.50;98.20;;;;;;5073065;28;20016;-74
2023/08/23 09:26:59;;;;;;;1999.90;999.90;;;40.20;98.30;;;;;;5072007;28;20483;-73
2023/08/23 09:29:25;;;;;;;1999.90;999.90;;;38.50;99.80;;;;;;5072967;28;20016;-76
2023/08/23 09:31:51;;;;;;;1999.90;999.90;;;37.40;99.90;;;;;;5071603;28;20083;-76
2023/08/23 09:34:16;;;;;;;1999.90;999.90;;;37.70;99.90;;;;;;5070838;28;20052;-73
2023/08/23 09:36:42;;;;;;;1999.90;999.90;;;37.70;99.90;;;;;;5072635;28;20441;-73
2023/08/23 09:39:09;;;;;;;1999.90;999.90;;;37.70;99.90;;;;;;5073792;28;20066;-75
2023/08/23 09:41:40;;;;;;;1999.90;999.90;;;37.40;99.90;;;;;;5068079;28;20451;-75
2023/08/23 09:44:06;;;;;;;1999.90;999.90;;;36.80;99.90;;;;;;5071728;28;20027;-75
2023/08/23 09:46:35;;;;;;;1999.90;999.90;;;36.00;99.90;;;;;;5072575;28;20028;-75
2023/08/23 09:49:04;;;;;;;1999.90;999.90;;;35.20;99.90;;;;;;5070195;28;20025;-73
2023/08/23 09:51:32;;;;;;;1999.90;999.90;;;34.80;99.90;;;;;;5071140;28;20036;-72
2023/08/23 09:54:02;;;;;;;1999.90;999.90;;;34.50;99.90;;;;;;5067824;28;20025;-76
2023/08/23 09:56:28;;;;;;;1999.90;999.90;;;34.50;99.90;;;;;;5074642;28;20034;-76
2023/08/23 09:58:55;;;;;;;1999.90;999.90;;;34.30;99.90;;;;;;5072596;28;20024;-75
2023/08/23 10:01:25;;;;;;;1999.90;999.90;;;34.50;99.90;;;;;;5069019;28;20040;-72
2023/08/23 10:03:51;;;;;;;1999.90;999.90;;;34.60;99.90;;;;;;5072320;28;20451;-75
2023/08/23 10:06:18;;;;;;;1999.90;999.90;;;34.70;99.90;;;;;;5070514;28;20153;-75
2023/08/23 10:08:44;;;;;;;1999.90;999.90;;;34.80;99.90;;;;;;5068798;28;20460;-75
2023/08/23 10:11:10;;;;;;;1999.90;999.90;;;35.00;99.90;;;;;;5072710;28;20032;-75
2023/08/23 10:13:37;;;;;;;1999.90;999.90;;;35.00;99.90;;;;;;5071603;28;20047;-73
2023/08/23 10:16:04;;;;;;;1999.90;999.90;;;34.50;99.90;;;;;;5076479;28;20029;-75
2023/08/23 10:18:33;;;;;;;1999.90;999.90;;;34.20;99.90;;;;;;5072429;28;20029;-77
2023/08/23 10:20:58;;;;;;;1999.90;999.90;;;34.00;99.90;;;;;;5066430;28;20484;-77
2023/08/23 10:23:26;;;;;;;1999.90;999.90;;;33.80;99.90;;;;;;5082598;28;20034;-74
2023/08/23 10:25:51;;;;;;;1999.90;999.90;;;33.70;99.90;;;;;;5072273;28;20031;-75
2023/08/23 10:28:18;;;;;;;1999.90;999.90;;;33.20;99.90;;;;;;5068650;28;20024;-75
2023/08/23 10:30:57;;;;;;;1999.90;999.90;;;33.10;99.90;;;;;;5071712;28;20376;-77
2023/08/23 10:33:23;;;;;;;1999.90;999.90;;;33.00;99.90;;;;;;5077814;28;20106;-76
2023/08/23 10:35:49;;;;;;;1999.90;999.90;;;32.80;99.90;;;;;;5075837;28;20116;-77
2023/08/23 10:38:15;;;;;;;1999.90;999.90;;;32.60;99.90;;;;;;5076687;28;20052;-76
2023/08/23 10:40:46;;;;;;;1999.90;999.90;;;32.30;99.90;;;;;;5064162;28;20038;-74
2023/08/23 10:43:13;;;;;;;1999.90;999.90;;;32.20;99.90;;;;;;5071145;28;20119;-75
2023/08/23 10:45:56;;;;;;;1999.90;999.90;;;32.10;99.90;;;;;;5071628;28;20028;-75
2023/08/23 10:48:23;;;;;;;1999.90;999.90;;;32.00;99.90;;;;;;5067316;28;20507;-77
2023/08/23 10:50:50;;;;;;;1999.90;999.90;;;31.60;99.90;;;;;;5071517;28;20103;-76
2023/08/23 10:53:16;;;;;;;1999.90;999.90;;;31.50;99.90;;;;;;5070179;28;20029;-75
2023/08/23 10:55:42;;;;;;;1999.90;999.90;;;31.30;99.90;;;;;;5070468;28;20032;-74
2023/08/23 10:58:08;;;;;;;1999.90;999.90;;;31.30;99.90;;;;;;5072104;28;20827;-77
2023/08/23 11:00:34;;;;;;;1999.90;999.90;;;31.20;99.90;;;;;;5077424;28;20484;-74
2023/08/23 11:03:01;;;;;;;1999.90;999.90;;;31.00;99.90;;;;;;5072213;28;20392;-75
2023/08/23 11:05:26;;;;;;;1999.90;999.90;;;30.80;99.90;;;;;;5075463;28;20052;-74
2023/08/23 11:07:52;;;;;;;1999.90;999.90;;;30.90;99.90;;;;;;5070227;28;20063;-74
2023/08/23 11:10:18;;;;;;;1999.90;999.90;;;30.90;99.90;;;;;;5069378;28;20079;-76
2023/08/23 11:12:44;;;;;;;1999.90;999.90;;;30.80;99.90;;;;;;5069954;28;20074;-77
2023/08/23 11:15:10;;;;;;;1999.90;999.90;;;30.80;99.90;;;;;;5072218;28;20025;-76
2023/08/23 11:17:37;;;;;;;1999.90;999.90;;;30.70;99.90;;;;;;5072529;28;20051;-77
2023/08/23 11:20:03;;;;;;;1999.90;999.90;;;30.70;99.90;;;;;;5076023;28;20036;-73
2023/08/23 11:22:29;;;;;;;1999.90;999.90;;;30.90;99.90;;;;;;5070491;28;20139;-75
2023/08/23 11:24:56;;;;;;;1999.90;999.90;;;31.10;99.90;;;;;;5071084;28;20216;-77
2023/08/23 11:27:22;;;;;;;1999.90;999.90;;;31.10;99.90;;;;;;5078538;28;20024;-78
2023/08/23 11:29:48;;;;;;;1999.90;999.90;;;31.30;99.90;;;;;;5073541;28;20036;-76
2023/08/23 11:32:13;;;;;;;1999.90;999.90;;;31.50;99.90;;;;;;5071085;28;20098;-71
2023/08/23 11:34:39;;;;;;;1999.90;999.90;;;31.70;99.90;;;;;;5079712;28;20478;-73
2023/08/23 11:37:09;;;;;;;1999.90;999.90;;;31.70;99.90;;;;;;5072682;28;20404;-78
2023/08/23 11:39:35;;;;;;;1999.90;999.90;;;31.60;99.90;;;;;;5070228;28;20050;-76
2023/08/23 11:42:01;;;;;;;1999.90;999.90;;;31.60;99.90;;;;;;5068609;28;20032;-76
2023/08/23 11:44:30;;;;;;;1999.90;999.90;;;31.60;99.90;;;;;;5065975;28;20029;-73
2023/08/23 11:46:58;;;;;;;1999.90;999.90;;;31.80;99.90;;;;;;5069976;28;20021;-72
2023/08/23 11:49:25;;;;;;;1999.90;999.90;;;32.00;99.90;;;;;;5070222;28;20103;-77
2023/08/23 11:51:50;;;;;;;1999.90;999.90;;;32.40;99.90;;;;;;5070398;28;20025;-77
2023/08/23 11:54:17;;;;;;;1999.90;999.90;;;32.70;99.90;;;;;;5069521;28;20047;-77
2023/08/23 11:56:46;;;;;;;1999.90;999.90;;;33.00;99.90;;;;;;5070375;28;20029;-76